createdAt,value
2016-05-21T00:00:35.967Z,0
2016-05-21T00:01:36.000Z,0
2016-05-21T00:02:36.034Z,0
2016-05-21T00:03:36.069Z,0
2016-05-21T00:04:36.102Z,0
2016-05-21T00:05:35.995Z,0
2016-05-21T00:06:36.169Z,0
2016-05-21T00:07:36.220Z,0
2016-05-21T00:08:36.253Z,0
2016-05-21T00:09:36.288Z,0
2016-05-21T00:10:36.321Z,0
2016-05-21T00:11:36.930Z,0
2016-05-21T00:12:36.417Z,0
2016-05-21T00:13:36.467Z,0
2016-05-21T00:14:36.500Z,0
2016-05-21T00:15:36.410Z,0
2016-05-21T00:16:36.608Z,0
2016-05-21T00:17:36.648Z,0
2016-05-21T00:18:36.532Z,0
2016-05-21T00:19:36.571Z,0
2016-05-21T00:20:36.766Z,0
2016-05-21T00:21:36.647Z,0
2016-05-21T00:22:36.700Z,0
2016-05-21T00:23:36.892Z,0
2016-05-21T00:24:36.773Z,0
2016-05-21T00:25:36.964Z,0
2016-05-21T00:26:37.250Z,0
2016-05-21T00:27:36.879Z,0
2016-05-21T00:28:37.069Z,0
2016-05-21T00:29:37.103Z,0
2016-05-21T00:30:36.981Z,0
2016-05-21T00:31:37.157Z,0
2016-05-21T00:32:37.207Z,0
2016-05-21T00:33:37.084Z,0
2016-05-21T00:34:37.118Z,0
2016-05-21T00:35:37.309Z,0
2016-05-21T00:36:37.186Z,0
2016-05-21T00:37:37.376Z,0
2016-05-21T00:38:37.426Z,0
2016-05-21T00:39:37.459Z,0
2016-05-21T00:40:37.322Z,0
2016-05-21T00:41:37.387Z,0
2016-05-21T00:42:37.546Z,0
2016-05-21T00:43:37.580Z,0
2016-05-21T00:44:37.613Z,0
2016-05-21T00:45:37.508Z,0
2016-05-21T00:46:37.683Z,0
2016-05-21T00:47:37.716Z,0
2016-05-21T00:48:37.594Z,0
2016-05-21T00:49:37.471Z,0
2016-05-21T00:50:37.661Z,0
2016-05-21T00:51:37.852Z,0
2016-05-21T00:52:37.901Z,0
2016-05-21T00:53:37.622Z,0
2016-05-21T00:54:37.984Z,0
2016-05-21T00:55:38.002Z,0
2016-05-21T00:56:38.037Z,0
2016-05-21T00:57:38.070Z,0
2016-05-21T00:58:38.104Z,0
2016-05-21T00:59:37.982Z,0
2016-05-21T01:00:38.173Z,0
2016-05-21T01:01:38.223Z,0
2016-05-21T01:02:38.256Z,0
2016-05-21T01:03:38.290Z,0
2016-05-21T01:04:38.152Z,0
2016-05-21T01:05:38.186Z,0
2016-05-21T01:06:38.392Z,0
2016-05-21T01:07:38.114Z,0
2016-05-21T01:08:38.303Z,0
2016-05-21T01:09:38.337Z,0
2016-05-21T01:10:38.527Z,0
2016-05-21T01:11:38.577Z,0
2016-05-21T01:12:38.423Z,0
2016-05-21T01:13:38.629Z,0
2016-05-21T01:14:38.679Z,0
2016-05-21T01:15:38.697Z,0
2016-05-21T01:16:38.731Z,0
2016-05-21T01:17:38.766Z,0
2016-05-21T01:18:38.799Z,0
2016-05-21T01:19:38.833Z,0
2016-05-21T01:20:38.867Z,0
2016-05-21T01:21:38.901Z,0
2016-05-21T01:22:38.935Z,0
2016-05-21T01:23:38.969Z,0
2016-05-21T01:24:39.002Z,0
2016-05-21T01:25:38.880Z,0
2016-05-21T01:26:39.367Z,0
2016-05-21T01:27:39.104Z,0
2016-05-21T01:28:38.998Z,0
2016-05-21T01:29:39.173Z,0
2016-05-21T01:30:39.207Z,0
2016-05-21T01:31:39.131Z,0
2016-05-21T01:32:39.274Z,0
2016-05-21T01:33:39.309Z,0
2016-05-21T01:34:39.342Z,0
2016-05-21T01:35:39.392Z,0
2016-05-21T01:36:39.098Z,0
2016-05-21T01:37:39.459Z,0
2016-05-21T01:38:39.322Z,0
2016-05-21T01:39:39.356Z,0
2016-05-21T01:40:39.545Z,0
2016-05-21T01:41:39.673Z,0
2016-05-21T01:42:39.629Z,0
2016-05-21T01:43:39.664Z,0
2016-05-21T01:44:39.698Z,0
2016-05-21T01:45:39.575Z,0
2016-05-21T01:46:39.453Z,0
2016-05-21T01:47:39.783Z,0
2016-05-21T01:48:39.833Z,0
2016-05-21T01:49:39.711Z,0
2016-05-21T01:50:39.900Z,0
2016-05-21T01:51:39.935Z,0
2016-05-21T01:52:39.968Z,0
2016-05-21T01:53:39.846Z,0
2016-05-21T01:54:40.036Z,0
2016-05-21T01:55:40.071Z,0
2016-05-21T01:56:40.449Z,0
2016-05-21T01:57:40.138Z,0
2016-05-21T01:58:40.016Z,0
2016-05-21T01:59:40.207Z,0
2016-05-21T02:00:39.927Z,0
2016-05-21T02:01:40.118Z,0
2016-05-21T02:02:40.307Z,0
2016-05-21T02:03:40.326Z,0
2016-05-21T02:04:40.220Z,0
2016-05-21T02:05:40.253Z,0
2016-05-21T02:06:40.287Z,0
2016-05-21T02:07:40.493Z,0
2016-05-21T02:08:40.511Z,0
2016-05-21T02:09:40.545Z,0
2016-05-21T02:10:40.579Z,0
2016-05-21T02:11:40.473Z,0
2016-05-21T02:12:40.648Z,0
2016-05-21T02:13:40.525Z,0
2016-05-21T02:14:40.715Z,0
2016-05-21T02:15:40.750Z,0
2016-05-21T02:16:40.783Z,0
2016-05-21T02:17:40.817Z,0
2016-05-21T02:18:40.850Z,0
2016-05-21T02:19:40.885Z,0
2016-05-21T02:20:40.919Z,0
2016-05-21T02:21:40.813Z,0
2016-05-21T02:22:40.830Z,0
2016-05-21T02:23:41.021Z,0
2016-05-21T02:24:40.742Z,0
2016-05-21T02:25:41.089Z,0
2016-05-21T02:26:41.138Z,0
2016-05-21T02:27:41.156Z,0
2016-05-21T02:28:41.035Z,0
2016-05-21T02:29:41.068Z,0
2016-05-21T02:30:41.258Z,0
2016-05-21T02:31:41.293Z,0
2016-05-21T02:32:41.326Z,0
2016-05-21T02:33:41.360Z,0
2016-05-21T02:34:41.393Z,0
2016-05-21T02:35:41.429Z,0
2016-05-21T02:36:41.305Z,0
2016-05-21T02:37:41.340Z,0
2016-05-21T02:38:41.530Z,0
2016-05-21T02:39:41.564Z,0
2016-05-21T02:40:41.598Z,0
2016-05-21T02:41:41.506Z,0
2016-05-21T02:42:41.353Z,0
2016-05-21T02:43:41.700Z,0
2016-05-21T02:44:41.733Z,0
2016-05-21T02:45:41.767Z,0
2016-05-21T02:46:41.816Z,0
2016-05-21T02:47:41.850Z,0
2016-05-21T02:48:41.885Z,4
2016-05-21T02:49:41.919Z,4
2016-05-21T02:50:41.937Z,0
2016-05-21T02:51:42.064Z,0
2016-05-21T02:52:42.646Z,4
2016-05-21T02:53:42.055Z,4
2016-05-21T02:54:41.979Z,0
2016-05-21T02:55:42.154Z,4
2016-05-21T02:56:42.422Z,4
2016-05-21T02:57:42.205Z,8
2016-05-21T02:58:42.208Z,4
2016-05-21T02:59:42.086Z,8
2016-05-21T03:00:42.293Z,8
2016-05-21T03:01:42.154Z,8
2016-05-21T03:02:42.187Z,12
2016-05-21T03:03:42.222Z,12
2016-05-21T03:04:42.412Z,12
2016-05-21T03:05:42.446Z,12
2016-05-21T03:06:42.323Z,16
2016-05-21T03:07:42.357Z,20
2016-05-21T03:08:42.548Z,20
2016-05-21T03:09:42.582Z,20
2016-05-21T03:10:42.615Z,24
2016-05-21T03:11:42.665Z,28
2016-05-21T03:12:42.684Z,36
2016-05-21T03:13:42.717Z,40
2016-05-21T03:14:42.767Z,48
2016-05-21T03:15:42.786Z,52
2016-05-21T03:16:42.819Z,56
2016-05-21T03:17:42.853Z,64
2016-05-21T03:18:42.887Z,64
2016-05-21T03:19:42.764Z,72
2016-05-21T03:20:42.800Z,76
2016-05-21T03:21:42.989Z,84
2016-05-21T03:22:43.023Z,92
2016-05-21T03:23:43.058Z,96
2016-05-21T03:24:42.935Z,104
2016-05-21T03:25:43.125Z,116
2016-05-21T03:26:43.018Z,124
2016-05-21T03:27:43.209Z,132
2016-05-21T03:28:43.227Z,140
2016-05-21T03:29:43.276Z,152
2016-05-21T03:30:43.138Z,164
2016-05-21T03:31:43.329Z,176
2016-05-21T03:32:43.206Z,188
2016-05-21T03:33:43.396Z,200
2016-05-21T03:34:43.430Z,216
2016-05-21T03:35:43.308Z,232
2016-05-21T03:36:43.514Z,248
2016-05-21T03:37:43.532Z,264
2016-05-21T03:38:43.566Z,288
2016-05-21T03:39:43.443Z,308
2016-05-21T03:40:43.634Z,324
2016-05-21T03:41:43.371Z,348
2016-05-21T03:42:43.701Z,372
2016-05-21T03:43:43.579Z,396
2016-05-21T03:44:43.786Z,424
2016-05-21T03:45:43.647Z,448
2016-05-21T03:46:43.837Z,480
2016-05-21T03:47:43.872Z,516
2016-05-21T03:48:43.906Z,544
2016-05-21T03:49:43.783Z,580
2016-05-21T03:50:43.817Z,612
2016-05-21T03:51:44.008Z,644
2016-05-21T03:52:44.041Z,680
2016-05-21T03:53:44.075Z,708
2016-05-21T03:54:43.953Z,744
2016-05-21T03:55:44.143Z,772
2016-05-21T03:56:44.458Z,808
2016-05-21T03:57:44.055Z,844
2016-05-21T03:58:44.245Z,884
2016-05-21T03:59:44.122Z,928
2016-05-21T04:00:44.313Z,972
2016-05-21T04:01:44.362Z,1028
2016-05-21T04:02:44.380Z,1084
2016-05-21T04:03:44.415Z,1144
2016-05-21T04:04:44.465Z,1204
2016-05-21T04:05:44.482Z,1260
2016-05-21T04:06:44.516Z,1312
2016-05-21T04:07:44.394Z,1368
2016-05-21T04:08:44.271Z,1428
2016-05-21T04:09:44.618Z,1496
2016-05-21T04:10:44.496Z,1564
2016-05-21T04:11:44.545Z,1636
2016-05-21T04:12:44.720Z,1708
2016-05-21T04:13:44.739Z,1784
2016-05-21T04:14:44.788Z,1864
2016-05-21T04:15:44.823Z,1944
2016-05-21T04:16:44.856Z,2024
2016-05-21T04:17:44.890Z,2108
2016-05-21T04:18:44.939Z,2196
2016-05-21T04:19:44.958Z,2280
2016-05-21T04:20:44.992Z,2368
2016-05-21T04:21:45.057Z,2488
2016-05-21T04:22:45.059Z,2680
2016-05-21T04:23:45.109Z,2864
2016-05-21T04:24:45.127Z,3052
2016-05-21T04:25:45.162Z,3140
2016-05-21T04:26:45.366Z,3172
2016-05-21T04:27:45.244Z,3216
2016-05-21T04:28:45.122Z,3132
2016-05-21T04:29:45.297Z,3048
2016-05-21T04:30:45.331Z,3132
2016-05-21T04:31:45.365Z,3120
2016-05-21T04:32:45.415Z,3100
2016-05-21T04:33:45.260Z,3056
2016-05-21T04:34:45.466Z,3068
2016-05-21T04:35:45.501Z,3400
2016-05-21T04:36:45.378Z,3864
2016-05-21T04:37:45.413Z,4596
2016-05-21T04:38:45.462Z,5352
2016-05-21T04:39:45.637Z,5728
2016-05-21T04:40:45.530Z,5956
2016-05-21T04:41:46.251Z,5412
2016-05-21T04:42:45.582Z,4808
2016-05-21T04:43:45.787Z,4084
2016-05-21T04:44:45.822Z,4004
2016-05-21T04:45:45.856Z,3780
2016-05-21T04:46:45.890Z,3264
2016-05-21T04:47:45.783Z,3240
2016-05-21T04:48:45.958Z,3652
2016-05-21T04:49:45.992Z,4144
2016-05-21T04:50:45.870Z,4256
2016-05-21T04:51:45.903Z,3856
2016-05-21T04:52:46.109Z,3948
2016-05-21T04:53:46.142Z,3984
2016-05-21T04:54:46.177Z,4592
2016-05-21T04:55:46.211Z,4644
2016-05-21T04:56:46.261Z,4744
2016-05-21T04:57:46.278Z,4908
2016-05-21T04:58:46.312Z,5000
2016-05-21T04:59:46.347Z,4760
2016-05-21T05:00:46.380Z,4820
2016-05-21T05:01:46.414Z,4752
2016-05-21T05:02:46.448Z,4340
2016-05-21T05:03:46.498Z,4156
2016-05-21T05:04:46.532Z,4148
2016-05-21T05:05:46.566Z,4256
2016-05-21T05:06:46.599Z,4088
2016-05-21T05:07:46.493Z,3948
2016-05-21T05:08:46.526Z,3756
2016-05-21T05:09:46.546Z,3736
2016-05-21T05:10:46.735Z,3700
2016-05-21T05:11:46.816Z,3728
2016-05-21T05:12:46.819Z,3656
2016-05-21T05:13:46.853Z,3556
2016-05-21T05:14:46.887Z,3452
2016-05-21T05:15:46.921Z,3416
2016-05-21T05:16:46.955Z,3416
2016-05-21T05:17:47.004Z,3492
2016-05-21T05:18:47.039Z,3660
2016-05-21T05:19:46.916Z,3928
2016-05-21T05:20:47.106Z,4164
2016-05-21T05:21:47.125Z,4392
2016-05-21T05:22:47.174Z,4664
2016-05-21T05:23:47.208Z,5060
2016-05-21T05:24:47.242Z,5644
2016-05-21T05:25:47.275Z,6316
2016-05-21T05:26:47.544Z,7024
2016-05-21T05:27:47.359Z,7516
2016-05-21T05:28:47.393Z,8408
2016-05-21T05:29:47.444Z,8628
2016-05-21T05:30:47.461Z,9028
2016-05-21T05:31:47.338Z,9408
2016-05-21T05:32:47.529Z,10340
2016-05-21T05:33:47.407Z,10488
2016-05-21T05:34:47.613Z,7480
2016-05-21T05:35:47.505Z,6172
2016-05-21T05:36:47.681Z,5940
2016-05-21T05:37:47.714Z,5800
2016-05-21T05:38:47.592Z,5716
2016-05-21T05:39:47.813Z,5620
2016-05-21T05:40:47.832Z,5452
2016-05-21T05:41:48.193Z,5200
2016-05-21T05:42:47.899Z,4940
2016-05-21T05:43:47.934Z,4588
2016-05-21T05:44:47.968Z,4372
2016-05-21T05:45:48.001Z,4272
2016-05-21T05:46:47.895Z,4164
2016-05-21T05:47:48.069Z,4072
2016-05-21T05:48:48.119Z,4036
2016-05-21T05:49:48.153Z,4064
2016-05-21T05:50:48.203Z,4196
2016-05-21T05:51:48.220Z,4344
2016-05-21T05:52:48.255Z,4472
2016-05-21T05:53:48.289Z,4620
2016-05-21T05:54:48.338Z,4740
2016-05-21T05:55:48.231Z,4752
2016-05-21T05:56:48.141Z,4780
2016-05-21T05:57:48.315Z,4948
2016-05-21T05:58:48.474Z,5224
2016-05-21T05:59:48.524Z,5452
2016-05-21T06:00:48.557Z,5688
2016-05-21T06:01:48.591Z,6156
2016-05-21T06:02:48.625Z,6832
2016-05-21T06:03:48.660Z,7512
2016-05-21T06:04:48.694Z,8172
2016-05-21T06:05:48.727Z,8460
2016-05-21T06:06:48.777Z,8616
2016-05-21T06:07:48.654Z,8752
2016-05-21T06:08:48.704Z,8976
2016-05-21T06:09:48.894Z,9052
2016-05-21T06:10:48.929Z,8940
2016-05-21T06:11:48.821Z,8800
2016-05-21T06:12:48.824Z,8788
2016-05-21T06:13:49.030Z,8604
2016-05-21T06:14:49.064Z,8580
2016-05-21T06:15:49.098Z,8556
2016-05-21T06:16:49.007Z,8708
2016-05-21T06:17:49.181Z,8672
2016-05-21T06:18:49.215Z,8508
2016-05-21T06:19:49.249Z,8440
2016-05-21T06:20:49.126Z,8480
2016-05-21T06:21:49.176Z,8656
2016-05-21T06:22:49.382Z,8860
2016-05-21T06:23:49.401Z,9240
2016-05-21T06:24:49.434Z,9652
2016-05-21T06:25:49.469Z,9996
2016-05-21T06:26:49.815Z,9776
2016-05-21T06:27:49.395Z,10020
2016-05-21T06:28:49.586Z,9900
2016-05-21T06:29:49.620Z,9972
2016-05-21T06:30:49.653Z,9316
2016-05-21T06:31:49.688Z,9228
2016-05-21T06:32:49.737Z,9352
2016-05-21T06:33:49.786Z,9316
2016-05-21T06:34:49.805Z,9356
2016-05-21T06:35:49.699Z,9360
2016-05-21T06:36:49.889Z,9252
2016-05-21T06:37:49.751Z,9224
2016-05-21T06:38:49.957Z,9220
2016-05-21T06:39:50.007Z,9120
2016-05-21T06:40:49.885Z,9320
2016-05-21T06:41:50.276Z,9292
2016-05-21T06:42:50.124Z,9192
2016-05-21T06:43:49.985Z,9256
2016-05-21T06:44:50.176Z,9172
2016-05-21T06:45:50.209Z,8848
2016-05-21T06:46:50.243Z,8444
2016-05-21T06:47:50.309Z,8036
2016-05-21T06:48:50.327Z,7844
2016-05-21T06:49:50.377Z,8124
2016-05-21T06:50:50.411Z,8164
2016-05-21T06:51:50.304Z,8360
2016-05-21T06:52:50.478Z,8420
2016-05-21T06:53:50.528Z,9608
2016-05-21T06:54:50.562Z,10476
2016-05-21T06:55:50.440Z,11460
2016-05-21T06:56:50.786Z,11948
2016-05-21T06:57:50.508Z,11944
2016-05-21T06:58:50.573Z,10680
2016-05-21T06:59:50.575Z,9800
2016-05-21T07:00:50.781Z,9424
2016-05-21T07:01:50.831Z,9960
2016-05-21T07:02:50.864Z,10568
2016-05-21T07:03:50.742Z,11188
2016-05-21T07:04:50.933Z,11624
2016-05-21T07:05:50.827Z,12032
2016-05-21T07:06:51.016Z,13176
2016-05-21T07:07:51.050Z,14232
2016-05-21T07:08:51.100Z,14132
2016-05-21T07:09:51.133Z,13348
2016-05-21T07:10:51.026Z,12880
2016-05-21T07:11:52.452Z,13284
2016-05-21T07:12:51.266Z,13808
2016-05-21T07:13:51.285Z,14216
2016-05-21T07:14:51.319Z,14400
2016-05-21T07:15:51.353Z,14184
2016-05-21T07:16:51.231Z,13140
2016-05-21T07:17:51.452Z,12884
2016-05-21T07:18:51.471Z,14180
2016-05-21T07:19:51.348Z,15280
2016-05-21T07:20:51.398Z,14924
2016-05-21T07:21:51.588Z,14008
2016-05-21T07:22:51.637Z,13820
2016-05-21T07:23:51.671Z,13792
2016-05-21T07:24:51.705Z,13412
2016-05-21T07:25:51.599Z,13288
2016-05-21T07:26:52.320Z,13684
2016-05-21T07:27:51.822Z,14696
2016-05-21T07:28:51.717Z,15520
2016-05-21T07:29:51.906Z,16416
2016-05-21T07:30:51.940Z,17344
2016-05-21T07:31:51.975Z,17472
2016-05-21T07:32:52.024Z,17568
2016-05-21T07:33:51.902Z,17824
2016-05-21T07:34:52.091Z,17824
2016-05-21T07:35:52.141Z,17120
2016-05-21T07:36:52.175Z,17408
2016-05-21T07:37:52.083Z,17952
2016-05-21T07:38:52.274Z,17088
2016-05-21T07:39:52.136Z,17792
2016-05-21T07:40:52.342Z,17408
2016-05-21T07:41:52.782Z,16544
2016-05-21T07:42:52.410Z,18528
2016-05-21T07:43:52.304Z,23648
2016-05-21T07:44:52.493Z,25792
2016-05-21T07:45:52.559Z,30912
2016-05-21T07:46:52.577Z,45664
2016-05-21T07:47:52.611Z,37184
2016-05-21T07:48:52.660Z,23552
2016-05-21T07:49:52.695Z,31776
2016-05-21T07:50:52.744Z,33376
2016-05-21T07:51:52.793Z,32128
2016-05-21T07:52:52.811Z,35680
2016-05-21T07:53:52.862Z,22688
2016-05-21T07:54:52.739Z,30432
2016-05-21T07:55:52.945Z,21088
2016-05-21T07:56:53.135Z,17728
2016-05-21T07:57:53.028Z,18368
2016-05-21T07:58:52.906Z,20032
2016-05-21T07:59:53.112Z,19520
2016-05-21T08:00:53.162Z,16992
2016-05-21T08:01:53.195Z,16416
2016-05-21T08:02:53.245Z,15840
2016-05-21T08:03:53.294Z,14696
2016-05-21T08:04:53.313Z,14396
2016-05-21T08:05:53.363Z,13352
2016-05-21T08:06:53.397Z,12500
2016-05-21T08:07:53.446Z,12224
2016-05-21T08:08:53.496Z,12152
2016-05-21T08:09:53.358Z,11924
2016-05-21T08:10:53.407Z,11692
2016-05-21T08:11:54.004Z,11604
2016-05-21T08:12:53.491Z,11136
2016-05-21T08:13:53.696Z,10944
2016-05-21T08:14:53.731Z,11292
2016-05-21T08:15:53.764Z,11908
2016-05-21T08:16:53.814Z,12432
2016-05-21T08:17:53.691Z,12328
2016-05-21T08:18:53.898Z,11988
2016-05-21T08:19:53.932Z,11808
2016-05-21T08:20:53.965Z,11916
2016-05-21T08:21:54.015Z,12396
2016-05-21T08:22:53.893Z,12412
2016-05-21T08:23:54.114Z,12796
2016-05-21T08:24:54.148Z,12964
2016-05-21T08:25:54.167Z,13228
2016-05-21T08:26:54.450Z,14156
2016-05-21T08:27:54.250Z,15268
2016-05-21T08:28:54.300Z,16960
2016-05-21T08:29:54.193Z,18656
2016-05-21T08:30:54.398Z,23584
2016-05-21T08:31:54.261Z,19584
2016-05-21T08:32:54.310Z,20224
2016-05-21T08:33:54.500Z,32288
2016-05-21T08:34:54.566Z,27360
2016-05-21T08:35:54.600Z,36032
2016-05-21T08:36:54.634Z,28352
2016-05-21T08:37:54.667Z,30528
2016-05-21T08:38:54.702Z,28480
2016-05-21T08:39:54.594Z,37984
2016-05-21T08:40:54.785Z,44288
2016-05-21T08:41:54.866Z,29312
2016-05-21T08:42:54.712Z,18752
2016-05-21T08:43:54.918Z,14700
2016-05-21T08:44:54.811Z,16800
2016-05-21T08:45:55.001Z,30592
2016-05-21T08:46:55.035Z,22912
2016-05-21T08:47:55.085Z,20384
2016-05-21T08:48:55.135Z,19904
2016-05-21T08:49:55.027Z,52640
2016-05-21T08:50:55.077Z,29056
2016-05-21T08:51:55.111Z,18208
2016-05-21T08:52:55.129Z,20672
2016-05-21T08:53:55.179Z,17120
2016-05-21T08:54:55.370Z,16832
2016-05-21T08:55:55.434Z,17824
2016-05-21T08:56:56.578Z,16992
2016-05-21T08:57:55.503Z,16576
2016-05-21T08:58:55.552Z,16992
2016-05-21T08:59:55.586Z,16064
2016-05-21T09:00:55.620Z,15484
2016-05-21T09:01:55.513Z,15344
2016-05-21T09:02:55.720Z,15568
2016-05-21T09:03:55.753Z,15544
2016-05-21T09:04:55.661Z,14924
2016-05-21T09:05:55.837Z,14420
2016-05-21T09:06:55.714Z,16960
2016-05-21T09:07:55.748Z,17952
2016-05-21T09:08:55.954Z,17152
2016-05-21T09:09:56.004Z,14544
2016-05-21T09:10:55.881Z,13568
2016-05-21T09:11:55.775Z,14352
2016-05-21T09:12:55.964Z,14188
2016-05-21T09:13:56.014Z,14728
2016-05-21T09:14:56.220Z,18784
2016-05-21T09:15:56.254Z,19328
2016-05-21T09:16:56.304Z,27008
2016-05-21T09:17:56.360Z,20800
2016-05-21T09:18:56.431Z,23360
2016-05-21T09:19:56.485Z,32256
2016-05-21T09:20:56.400Z,20064
2016-05-21T09:21:56.611Z,14016
2016-05-21T09:22:56.651Z,12008
2016-05-21T09:23:56.537Z,12584
2016-05-21T09:24:56.751Z,11400
2016-05-21T09:25:56.808Z,10312
2016-05-21T09:26:56.959Z,12552
2016-05-21T09:27:56.886Z,28864
2016-05-21T09:28:56.781Z,40896
2016-05-21T09:29:56.991Z,28000
2016-05-21T09:30:57.042Z,36384
2016-05-21T09:31:57.080Z,14080
2016-05-21T09:32:56.974Z,15652
2016-05-21T09:33:57.165Z,29248
2016-05-21T09:34:57.045Z,35936
2016-05-21T09:35:57.079Z,12276
2016-05-21T09:36:57.286Z,12424
2016-05-21T09:37:57.336Z,20320
2016-05-21T09:38:57.387Z,43104
2016-05-21T09:39:57.420Z,59552
2016-05-21T09:40:57.470Z,62912
2016-05-21T09:41:57.521Z,60512
2016-05-21T09:42:57.383Z,64544
2016-05-21T09:43:57.588Z,62528
2016-05-21T09:44:57.637Z,56512
2016-05-21T09:45:57.515Z,38880
2016-05-21T09:46:57.721Z,25312
2016-05-21T09:47:57.771Z,33312
2016-05-21T09:48:57.493Z,38016
2016-05-21T09:49:57.853Z,60448
2016-05-21T09:50:57.904Z,59904
2016-05-21T09:51:57.938Z,58144
2016-05-21T09:52:57.987Z,61312
2016-05-21T09:53:58.021Z,57664
2016-05-21T09:54:58.071Z,62528
2016-05-21T09:55:58.105Z,54816
2016-05-21T09:56:58.013Z,29792
2016-05-21T09:57:58.204Z,25632
2016-05-21T09:58:58.238Z,19936
2016-05-21T09:59:58.288Z,55776
2016-05-21T10:00:58.337Z,60672
2016-05-21T10:01:58.246Z,35648
2016-05-21T10:02:58.296Z,27328
2016-05-21T10:03:58.471Z,76576
2016-05-21T10:04:58.504Z,78848
2016-05-21T10:05:58.554Z,70848
2016-05-21T10:06:58.463Z,67616
2016-05-21T10:07:58.668Z,62336
2016-05-21T10:08:58.687Z,58912
2016-05-21T10:09:58.580Z,54592
2016-05-21T10:10:58.645Z,48320
2016-05-21T10:11:58.710Z,47968
2016-05-21T10:12:58.885Z,48704
2016-05-21T10:13:58.918Z,55104
2016-05-21T10:14:58.812Z,53984
2016-05-21T10:15:59.017Z,56032
2016-05-21T10:16:59.068Z,49120
2016-05-21T10:17:59.117Z,67488
2016-05-21T10:18:59.150Z,73824
2016-05-21T10:19:59.200Z,75168
2016-05-21T10:20:59.095Z,74432
2016-05-21T10:21:59.315Z,72736
2016-05-21T10:22:59.334Z,76576
2016-05-21T10:23:59.400Z,70048
2016-05-21T10:24:59.277Z,70592
2016-05-21T10:25:59.497Z,12808
2016-05-21T10:26:59.407Z,15132
2016-05-21T10:27:59.581Z,29120
2016-05-21T10:28:59.631Z,31552
2016-05-21T10:29:59.508Z,19520
2016-05-21T10:30:59.730Z,57536
2016-05-21T10:31:59.780Z,61312
2016-05-21T10:32:59.814Z,27104
2016-05-21T10:33:59.863Z,66112
2016-05-21T10:34:59.897Z,79776
2016-05-21T10:35:59.963Z,73504
2016-05-21T10:37:00.013Z,15140
2016-05-21T10:38:00.046Z,27392
2016-05-21T10:39:00.096Z,37696
2016-05-21T10:40:00.146Z,67136
2016-05-21T10:41:00.195Z,67968
2016-05-21T10:42:00.743Z,66432
2016-05-21T10:43:00.278Z,23712
2016-05-21T10:44:00.328Z,48544
2016-05-21T10:45:00.377Z,40128
2016-05-21T10:46:00.442Z,63136
2016-05-21T10:47:00.476Z,21984
2016-05-21T10:48:00.526Z,35296
2016-05-21T10:49:00.576Z,17536
2016-05-21T10:50:00.625Z,42976
2016-05-21T10:51:00.503Z,77568
2016-05-21T10:52:00.725Z,82400
2016-05-21T10:53:00.759Z,77600
2016-05-21T10:54:00.792Z,71872
2016-05-21T10:55:00.873Z,19264
2016-05-21T10:56:00.751Z,44896
2016-05-21T10:57:00.520Z,65568
2016-05-21T10:58:00.990Z,18336
2016-05-21T10:59:01.040Z,13936
2016-05-21T11:00:01.105Z,15808
2016-05-21T11:01:01.139Z,20000
2016-05-21T11:02:01.172Z,35456
2016-05-21T11:03:01.223Z,21312
2016-05-21T11:04:01.272Z,17824
2016-05-21T11:05:01.321Z,14456
2016-05-21T11:06:01.215Z,14348
2016-05-21T11:07:01.421Z,20832
2016-05-21T11:08:01.455Z,67360
2016-05-21T11:09:01.520Z,70176
2016-05-21T11:10:01.554Z,74720
2016-05-21T11:11:01.604Z,18016
2016-05-21T11:12:01.966Z,26080
2016-05-21T11:13:01.687Z,20480
2016-05-21T11:14:01.737Z,22784
2016-05-21T11:15:01.771Z,14512
2016-05-21T11:16:01.820Z,19296
2016-05-21T11:17:01.854Z,19872
2016-05-21T11:18:02.123Z,17984
2016-05-21T11:19:01.812Z,72128
2016-05-21T11:20:02.003Z,66528
2016-05-21T11:21:02.053Z,16448
2016-05-21T11:22:01.945Z,21952
2016-05-21T11:23:01.995Z,17216
2016-05-21T11:24:02.076Z,61952
2016-05-21T11:25:02.234Z,22528
2016-05-21T11:26:02.128Z,43200
2016-05-21T11:27:02.349Z,16576
2016-05-21T11:28:02.228Z,13976
2016-05-21T11:29:02.417Z,13988
2016-05-21T11:30:02.483Z,15324
2016-05-21T11:31:02.500Z,17408
2016-05-21T11:32:02.582Z,69600
2016-05-21T11:33:02.600Z,67168
2016-05-21T11:34:02.634Z,20288
2016-05-21T11:35:02.543Z,34112
2016-05-21T11:36:02.733Z,61152
2016-05-21T11:37:02.783Z,68928
2016-05-21T11:38:02.849Z,84320
2016-05-21T11:39:02.882Z,80352
2016-05-21T11:40:02.932Z,15176
2016-05-21T11:41:02.652Z,78912
2016-05-21T11:42:03.015Z,92256
2016-05-21T11:43:02.907Z,89888
2016-05-21T11:44:03.099Z,101184
2016-05-21T11:45:02.992Z,43008
2016-05-21T11:46:03.041Z,23616
2016-05-21T11:47:03.232Z,15520
2016-05-21T11:48:03.297Z,24832
2016-05-21T11:49:03.331Z,18784
2016-05-21T11:50:03.381Z,16416
2016-05-21T11:51:03.429Z,13396
2016-05-21T11:52:03.495Z,16112
2016-05-21T11:53:03.529Z,18720
2016-05-21T11:54:03.578Z,11876
2016-05-21T11:55:03.612Z,11716
2016-05-21T11:56:03.662Z,15496
2016-05-21T11:57:03.493Z,14604
2016-05-21T11:58:03.761Z,13516
2016-05-21T11:59:03.639Z,21568
2016-05-21T12:00:03.688Z,66752
2016-05-21T12:01:03.738Z,49728
2016-05-21T12:02:03.927Z,32576
2016-05-21T12:03:03.822Z,18336
2016-05-21T12:04:04.028Z,18368
2016-05-21T12:05:04.077Z,69696
2016-05-21T12:06:04.126Z,66944
2016-05-21T12:07:04.004Z,29024
2016-05-21T12:08:04.038Z,59584
2016-05-21T12:09:04.103Z,11528
2016-05-21T12:10:04.294Z,13948
2016-05-21T12:11:04.358Z,89696
2016-05-21T12:12:04.299Z,31168
2016-05-21T12:13:04.301Z,42112
2016-05-21T12:14:04.476Z,87360
2016-05-21T12:15:04.526Z,62016
2016-05-21T12:16:04.560Z,58688
2016-05-21T12:17:04.468Z,38144
2016-05-21T12:18:04.502Z,27616
2016-05-21T12:19:04.709Z,24928
2016-05-21T12:20:04.757Z,35968
2016-05-21T12:21:04.495Z,56704
2016-05-21T12:22:04.701Z,56832
2016-05-21T12:23:04.906Z,34496
2016-05-21T12:24:04.940Z,52864
2016-05-21T12:25:04.990Z,42976
2016-05-21T12:26:05.039Z,40288
2016-05-21T12:27:04.776Z,40128
2016-05-21T12:28:05.123Z,70016
2016-05-21T12:29:05.016Z,81664
2016-05-21T12:30:04.909Z,80224
2016-05-21T12:31:05.272Z,83840
2016-05-21T12:32:05.150Z,86656
2016-05-21T12:33:05.200Z,79808
2016-05-21T12:34:05.405Z,88640
2016-05-21T12:35:05.470Z,87520
2016-05-21T12:36:05.519Z,84032
2016-05-21T12:37:05.553Z,78528
2016-05-21T12:38:05.618Z,54688
2016-05-21T12:39:05.638Z,51744
2016-05-21T12:40:05.702Z,47200
2016-05-21T12:41:05.735Z,33664
2016-05-21T12:42:05.817Z,33408
2016-05-21T12:43:05.835Z,19648
2016-05-21T12:44:05.885Z,32768
2016-05-21T12:45:05.779Z,47552
2016-05-21T12:46:05.827Z,41472
2016-05-21T12:47:06.034Z,13308
2016-05-21T12:48:06.082Z,11532
2016-05-21T12:49:06.132Z,56000
2016-05-21T12:50:06.182Z,47296
2016-05-21T12:51:06.232Z,48448
2016-05-21T12:52:06.266Z,80352
2016-05-21T12:53:06.315Z,72640
2016-05-21T12:54:06.365Z,67264
2016-05-21T12:55:06.273Z,79168
2016-05-21T12:56:06.464Z,74400
2016-05-21T12:57:06.451Z,72224
2016-05-21T12:58:06.563Z,72832
2016-05-21T12:59:06.612Z,68832
2016-05-21T13:00:06.662Z,74080
2016-05-21T13:01:06.712Z,70976
2016-05-21T13:02:06.761Z,62112
2016-05-21T13:03:06.811Z,57440
2016-05-21T13:04:06.705Z,60480
2016-05-21T13:05:06.894Z,69088
2016-05-21T13:06:06.960Z,76128
2016-05-21T13:07:06.993Z,79072
2016-05-21T13:08:06.902Z,74976
2016-05-21T13:09:07.093Z,65472
2016-05-21T13:10:07.142Z,60768
2016-05-21T13:11:07.208Z,63552
2016-05-21T13:12:07.147Z,72608
2016-05-21T13:13:07.150Z,80160
2016-05-21T13:14:07.340Z,81984
2016-05-21T13:15:07.391Z,71008
2016-05-21T13:16:07.298Z,62624
2016-05-21T13:17:07.504Z,58528
2016-05-21T13:18:07.398Z,58400
2016-05-21T13:19:07.448Z,64640
2016-05-21T13:20:07.654Z,69408
2016-05-21T13:21:07.703Z,67136
2016-05-21T13:22:07.596Z,65152
2016-05-21T13:23:07.802Z,62848
2016-05-21T13:24:07.851Z,60288
2016-05-21T13:25:07.745Z,68800
2016-05-21T13:26:07.967Z,67328
2016-05-21T13:27:08.016Z,63040